<?xml version="1.0" encoding="UTF-8" standalone="no" ?>
<gpx xmlns="http://www.topografix.com/GPX/1/1" xmlns:xsi="http://www.w3.org/2001/XMLSchema-instance" xsi:schemaLocation="http://www.topografix.com/GPX/1/1 http://www.topografix.com/GPX/1/1/gpx.xsd" version="1.1" creator="VisuGPX - https://www.visugpx.com">
  <metadata>
    <name>Norvège</name>
  </metadata>
  <trk>
    <name><![CDATA[Tour d'Europe: étape 056]]></name>
    <trkseg>
      <trkpt lat="68.55342" lon="14.9228">
        <ele>61.895135</ele>
        <time>2020-08-23T07:47:42.612Z</time>
      </trkpt>
      <trkpt lat="68.55418" lon="14.91756">
        <ele>66.467885</ele>
        <time>2020-08-23T07:49:02.629Z</time>
      </trkpt>
      <trkpt lat="68.55559" lon="14.91328">
        <ele>65.189332</ele>
        <time>2020-08-23T07:49:56.654Z</time>
      </trkpt>
      <trkpt lat="68.55755" lon="14.91169">
        <ele>59.066128</ele>
        <time>2020-08-23T07:50:36.622Z</time>
      </trkpt>
      <trkpt lat="68.56017" lon="14.91377">
        <ele>48.214044</ele>
        <time>2020-08-23T07:51:19.634Z</time>
      </trkpt>
      <trkpt lat="68.56174" lon="14.91027">
        <ele>40.838585</ele>
        <time>2020-08-23T07:52:01.618Z</time>
      </trkpt>
      <trkpt lat="68.5637" lon="14.91129">
        <ele>41.42132</ele>
        <time>2020-08-23T07:52:41.604Z</time>
      </trkpt>
      <trkpt lat="68.56538" lon="14.91411">
        <ele>42.861356</ele>
        <time>2020-08-23T07:53:22.624Z</time>
      </trkpt>
      <trkpt lat="68.56686" lon="14.91792">
        <ele>55.531871</ele>
        <time>2020-08-23T07:54:44.619Z</time>
      </trkpt>
      <trkpt lat="68.56851" lon="14.92178">
        <ele>51.893573</ele>
        <time>2020-08-23T07:56:09.636Z</time>
      </trkpt>
      <trkpt lat="68.57018" lon="14.92492">
        <ele>46.662294</ele>
        <time>2020-08-23T07:56:50.604Z</time>
      </trkpt>
      <trkpt lat="68.57181" lon="14.92929">
        <ele>48.893501</ele>
        <time>2020-08-23T07:57:44.621Z</time>
      </trkpt>
      <trkpt lat="68.57204" lon="14.93486">
        <ele>52.193506</ele>
        <time>2020-08-23T07:58:44.607Z</time>
      </trkpt>
      <trkpt lat="68.57155" lon="14.94071">
        <ele>52.877452</ele>
        <time>2020-08-23T07:59:44.624Z</time>
      </trkpt>
      <trkpt lat="68.57081" lon="14.9459">
        <ele>53.174059</ele>
        <time>2020-08-23T08:00:28.618Z</time>
      </trkpt>
      <trkpt lat="68.57038" lon="14.95101">
        <ele>49.448153</ele>
        <time>2020-08-23T08:01:16.607Z</time>
      </trkpt>
      <trkpt lat="68.56995" lon="14.95499">
        <ele>46.321331</ele>
        <time>2020-08-23T08:02:58.634Z</time>
      </trkpt>
      <trkpt lat="68.56926" lon="14.96158">
        <ele>37.911905</ele>
        <time>2020-08-23T08:03:48.629Z</time>
      </trkpt>
      <trkpt lat="68.56906" lon="14.96828">
        <ele>32.173978</ele>
        <time>2020-08-23T08:04:19.661Z</time>
      </trkpt>
      <trkpt lat="68.56929" lon="14.97441">
        <ele>34.826525</ele>
        <time>2020-08-23T08:04:59.653Z</time>
      </trkpt>
      <trkpt lat="68.56952" lon="14.98037">
        <ele>37.464562</ele>
        <time>2020-08-23T08:05:39.609Z</time>
      </trkpt>
      <trkpt lat="68.56974" lon="14.98623">
        <ele>41.288416</ele>
        <time>2020-08-23T08:06:24.623Z</time>
      </trkpt>
      <trkpt lat="68.57051" lon="14.99114">
        <ele>56.543182</ele>
        <time>2020-08-23T08:08:15.619Z</time>
      </trkpt>
      <trkpt lat="68.57208" lon="14.99439">
        <ele>72.835088</ele>
        <time>2020-08-23T08:10:16.649Z</time>
      </trkpt>
      <trkpt lat="68.57421" lon="14.99701">
        <ele>66.763598</ele>
        <time>2020-08-23T08:11:15.645Z</time>
      </trkpt>
      <trkpt lat="68.57637" lon="14.99866">
        <ele>51.445288</ele>
        <time>2020-08-23T08:11:35.607Z</time>
      </trkpt>
      <trkpt lat="68.57895" lon="15.00054">
        <ele>41.001089</ele>
        <time>2020-08-23T08:12:10.643Z</time>
      </trkpt>
      <trkpt lat="68.58107" lon="15.00207">
        <ele>45.048647</ele>
        <time>2020-08-23T08:12:50.645Z</time>
      </trkpt>
      <trkpt lat="68.58295" lon="15.00425">
        <ele>45.408228</ele>
        <time>2020-08-23T08:13:30.611Z</time>
      </trkpt>
      <trkpt lat="68.58391" lon="15.00914">
        <ele>44.992606</ele>
        <time>2020-08-23T08:14:17.626Z</time>
      </trkpt>
      <trkpt lat="68.58347" lon="15.01475">
        <ele>47.349664</ele>
        <time>2020-08-23T08:15:28.644Z</time>
      </trkpt>
      <trkpt lat="68.58288" lon="15.02016">
        <ele>51.021775</ele>
        <time>2020-08-23T08:16:28.640Z</time>
      </trkpt>
      <trkpt lat="68.58258" lon="15.02593">
        <ele>53.288587</ele>
        <time>2020-08-23T08:17:28.626Z</time>
      </trkpt>
      <trkpt lat="68.5827" lon="15.03273">
        <ele>52.269899</ele>
        <time>2020-08-23T08:18:28.608Z</time>
      </trkpt>
      <trkpt lat="68.58304" lon="15.03823">
        <ele>53.076231</ele>
        <time>2020-08-23T08:19:08.609Z</time>
      </trkpt>
      <trkpt lat="68.58348" lon="15.04388">
        <ele>52.384381</ele>
        <time>2020-08-23T08:19:48.609Z</time>
      </trkpt>
      <trkpt lat="68.58441" lon="15.04905">
        <ele>52.23936</ele>
        <time>2020-08-23T08:20:28.610Z</time>
      </trkpt>
      <trkpt lat="68.58584" lon="15.05338">
        <ele>49.831069</ele>
        <time>2020-08-23T08:21:08.624Z</time>
      </trkpt>
      <trkpt lat="68.58794" lon="15.05753">
        <ele>44.335901</ele>
        <time>2020-08-23T08:21:48.633Z</time>
      </trkpt>
      <trkpt lat="68.58974" lon="15.06096">
        <ele>42.469277</ele>
        <time>2020-08-23T08:22:28.609Z</time>
      </trkpt>
      <trkpt lat="68.59133" lon="15.06395">
        <ele>43.693652</ele>
        <time>2020-08-23T08:23:08.626Z</time>
      </trkpt>
      <trkpt lat="68.593" lon="15.06715">
        <ele>43.713705</ele>
        <time>2020-08-23T08:23:50.622Z</time>
      </trkpt>
      <trkpt lat="68.59462" lon="15.07019">
        <ele>45.40527</ele>
        <time>2020-08-23T08:24:30.625Z</time>
      </trkpt>
      <trkpt lat="68.59646" lon="15.07369">
        <ele>46.404903</ele>
        <time>2020-08-23T08:25:20.624Z</time>
      </trkpt>
      <trkpt lat="68.59795" lon="15.07808">
        <ele>46.591035</ele>
        <time>2020-08-23T08:26:09.632Z</time>
      </trkpt>
      <trkpt lat="68.59915" lon="15.08272">
        <ele>46.644916</ele>
        <time>2020-08-23T08:26:54.629Z</time>
      </trkpt>
      <trkpt lat="68.60044" lon="15.087">
        <ele>44.089629</ele>
        <time>2020-08-23T08:27:34.605Z</time>
      </trkpt>
      <trkpt lat="68.60211" lon="15.09106">
        <ele>44.375705</ele>
        <time>2020-08-23T08:28:16.634Z</time>
      </trkpt>
      <trkpt lat="68.6036" lon="15.09661">
        <ele>46.654016</ele>
        <time>2020-08-23T08:29:15.612Z</time>
      </trkpt>
      <trkpt lat="68.60515" lon="15.10159">
        <ele>46.066394</ele>
        <time>2020-08-23T08:30:01.626Z</time>
      </trkpt>
      <trkpt lat="68.60662" lon="15.10601">
        <ele>46.469018</ele>
        <time>2020-08-23T08:30:45.669Z</time>
      </trkpt>
      <trkpt lat="68.60826" lon="15.11089">
        <ele>48.706126</ele>
        <time>2020-08-23T08:31:44.628Z</time>
      </trkpt>
      <trkpt lat="68.6097" lon="15.11522">
        <ele>47.942858</ele>
        <time>2020-08-23T08:32:32.646Z</time>
      </trkpt>
      <trkpt lat="68.61105" lon="15.11922">
        <ele>46.871756</ele>
        <time>2020-08-23T08:33:15.631Z</time>
      </trkpt>
      <trkpt lat="68.61248" lon="15.12315">
        <ele>46.218666</ele>
        <time>2020-08-23T08:33:55.647Z</time>
      </trkpt>
      <trkpt lat="68.61397" lon="15.12769">
        <ele>45.755019</ele>
        <time>2020-08-23T08:34:40.650Z</time>
      </trkpt>
      <trkpt lat="68.61516" lon="15.13324">
        <ele>45.955378</ele>
        <time>2020-08-23T08:35:35.625Z</time>
      </trkpt>
      <trkpt lat="68.61569" lon="15.13848">
        <ele>44.79668</ele>
        <time>2020-08-23T08:36:18.635Z</time>
      </trkpt>
      <trkpt lat="68.61574" lon="15.14495">
        <ele>47.282628</ele>
        <time>2020-08-23T08:37:18.627Z</time>
      </trkpt>
      <trkpt lat="68.61572" lon="15.15064">
        <ele>53.852544</ele>
        <time>2020-08-23T08:38:34.631Z</time>
      </trkpt>
      <trkpt lat="68.61562" lon="15.15615">
        <ele>59.601968</ele>
        <time>2020-08-23T08:39:44.611Z</time>
      </trkpt>
      <trkpt lat="68.61616" lon="15.16159">
        <ele>63.835594</ele>
        <time>2020-08-23T08:40:55.643Z</time>
      </trkpt>
      <trkpt lat="68.61746" lon="15.16633">
        <ele>66.143162</ele>
        <time>2020-08-23T08:41:55.627Z</time>
      </trkpt>
      <trkpt lat="68.61928" lon="15.17075">
        <ele>63.963185</ele>
        <time>2020-08-23T08:42:40.610Z</time>
      </trkpt>
      <trkpt lat="68.62106" lon="15.17583">
        <ele>55.48674</ele>
        <time>2020-08-23T08:43:20.611Z</time>
      </trkpt>
      <trkpt lat="68.62256" lon="15.18015">
        <ele>56.438165</ele>
        <time>2020-08-23T08:44:00.624Z</time>
      </trkpt>
      <trkpt lat="68.62399" lon="15.18428">
        <ele>55.824413</ele>
        <time>2020-08-23T08:44:40.628Z</time>
      </trkpt>
      <trkpt lat="68.62572" lon="15.18774">
        <ele>55.141979</ele>
        <time>2020-08-23T08:45:20.611Z</time>
      </trkpt>
      <trkpt lat="68.62718" lon="15.19144">
        <ele>55.508216</ele>
        <time>2020-08-23T08:46:00.637Z</time>
      </trkpt>
      <trkpt lat="68.62863" lon="15.19529">
        <ele>55.546959</ele>
        <time>2020-08-23T08:46:40.618Z</time>
      </trkpt>
      <trkpt lat="68.62996" lon="15.19973">
        <ele>55.532026</ele>
        <time>2020-08-23T08:47:22.656Z</time>
      </trkpt>
      <trkpt lat="68.63095" lon="15.20444">
        <ele>54.968256</ele>
        <time>2020-08-23T08:48:02.640Z</time>
      </trkpt>
      <trkpt lat="68.63238" lon="15.20854">
        <ele>54.218196</ele>
        <time>2020-08-23T08:48:42.653Z</time>
      </trkpt>
      <trkpt lat="68.63335" lon="15.21339">
        <ele>52.34234</ele>
        <time>2020-08-23T08:49:23.630Z</time>
      </trkpt>
      <trkpt lat="68.63355" lon="15.21898">
        <ele>52.193366</ele>
        <time>2020-08-23T08:50:04.624Z</time>
      </trkpt>
      <trkpt lat="68.63394" lon="15.22439">
        <ele>53.625192</ele>
        <time>2020-08-23T08:50:44.644Z</time>
      </trkpt>
      <trkpt lat="68.63431" lon="15.23041">
        <ele>52.631414</ele>
        <time>2020-08-23T08:51:26.619Z</time>
      </trkpt>
      <trkpt lat="68.63402" lon="15.23597">
        <ele>52.5821</ele>
        <time>2020-08-23T08:52:06.641Z</time>
      </trkpt>
      <trkpt lat="68.63493" lon="15.2415">
        <ele>54.572295</ele>
        <time>2020-08-23T08:52:51.679Z</time>
      </trkpt>
      <trkpt lat="68.63567" lon="15.24637">
        <ele>54.819312</ele>
        <time>2020-08-23T08:53:31.628Z</time>
      </trkpt>
      <trkpt lat="68.63708" lon="15.25093">
        <ele>53.63964</ele>
        <time>2020-08-23T08:54:16.633Z</time>
      </trkpt>
      <trkpt lat="68.63868" lon="15.25474">
        <ele>56.515728</ele>
        <time>2020-08-23T08:55:01.652Z</time>
      </trkpt>
      <trkpt lat="68.63999" lon="15.25881">
        <ele>55.758768</ele>
        <time>2020-08-23T08:55:41.617Z</time>
      </trkpt>
      <trkpt lat="68.64131" lon="15.26323">
        <ele>54.051918</ele>
        <time>2020-08-23T08:56:21.643Z</time>
      </trkpt>
      <trkpt lat="68.64236" lon="15.26829">
        <ele>52.198369</ele>
        <time>2020-08-23T08:57:01.622Z</time>
      </trkpt>
      <trkpt lat="68.64398" lon="15.27487">
        <ele>45.950078</ele>
        <time>2020-08-23T08:57:43.628Z</time>
      </trkpt>
      <trkpt lat="68.64544" lon="15.28006">
        <ele>45.007827</ele>
        <time>2020-08-23T08:58:23.623Z</time>
      </trkpt>
      <trkpt lat="68.64612" lon="15.28535">
        <ele>46.030215</ele>
        <time>2020-08-23T08:59:06.627Z</time>
      </trkpt>
      <trkpt lat="68.64704" lon="15.29064">
        <ele>47.18144</ele>
        <time>2020-08-23T09:00:03.629Z</time>
      </trkpt>
      <trkpt lat="68.64825" lon="15.29537">
        <ele>46.821661</ele>
        <time>2020-08-23T09:00:43.654Z</time>
      </trkpt>
      <trkpt lat="68.64931" lon="15.30046">
        <ele>44.959519</ele>
        <time>2020-08-23T09:01:23.617Z</time>
      </trkpt>
      <trkpt lat="68.65009" lon="15.30568">
        <ele>43.188247</ele>
        <time>2020-08-23T09:02:03.653Z</time>
      </trkpt>
      <trkpt lat="68.65094" lon="15.31076">
        <ele>43.590191</ele>
        <time>2020-08-23T09:02:45.652Z</time>
      </trkpt>
      <trkpt lat="68.65142" lon="15.31606">
        <ele>43.118782</ele>
        <time>2020-08-23T09:03:25.643Z</time>
      </trkpt>
      <trkpt lat="68.65208" lon="15.3214">
        <ele>43.967972</ele>
        <time>2020-08-23T09:04:05.620Z</time>
      </trkpt>
      <trkpt lat="68.6532" lon="15.32605">
        <ele>42.71566</ele>
        <time>2020-08-23T09:04:45.630Z</time>
      </trkpt>
      <trkpt lat="68.65465" lon="15.3305">
        <ele>43.137299</ele>
        <time>2020-08-23T09:05:43.620Z</time>
      </trkpt>
      <trkpt lat="68.65589" lon="15.33497">
        <ele>46.186588</ele>
        <time>2020-08-23T09:06:47.641Z</time>
      </trkpt>
      <trkpt lat="68.65739" lon="15.3398">
        <ele>42.549336</ele>
        <time>2020-08-23T09:07:38.643Z</time>
      </trkpt>
      <trkpt lat="68.6589" lon="15.34344">
        <ele>42.351758</ele>
        <time>2020-08-23T09:08:22.630Z</time>
      </trkpt>
      <trkpt lat="68.66062" lon="15.34743">
        <ele>42.153112</ele>
        <time>2020-08-23T09:09:12.617Z</time>
      </trkpt>
      <trkpt lat="68.66206" lon="15.35167">
        <ele>41.502389</ele>
        <time>2020-08-23T09:10:03.616Z</time>
      </trkpt>
      <trkpt lat="68.66332" lon="15.35571">
        <ele>43.11756</ele>
        <time>2020-08-23T09:10:45.635Z</time>
      </trkpt>
      <trkpt lat="68.66493" lon="15.35934">
        <ele>43.986756</ele>
        <time>2020-08-23T09:11:25.629Z</time>
      </trkpt>
      <trkpt lat="68.66631" lon="15.36367">
        <ele>43.317827</ele>
        <time>2020-08-23T09:12:05.640Z</time>
      </trkpt>
      <trkpt lat="68.66756" lon="15.36791">
        <ele>44.130182</ele>
        <time>2020-08-23T09:12:46.654Z</time>
      </trkpt>
      <trkpt lat="68.66887" lon="15.37176">
        <ele>45.074885</ele>
        <time>2020-08-23T09:13:26.633Z</time>
      </trkpt>
      <trkpt lat="68.67032" lon="15.3758">
        <ele>45.949664</ele>
        <time>2020-08-23T09:14:08.624Z</time>
      </trkpt>
      <trkpt lat="68.67229" lon="15.37881">
        <ele>43.629944</ele>
        <time>2020-08-23T09:14:48.658Z</time>
      </trkpt>
      <trkpt lat="68.67452" lon="15.38188">
        <ele>41.687183</ele>
        <time>2020-08-23T09:15:28.671Z</time>
      </trkpt>
      <trkpt lat="68.67648" lon="15.38506">
        <ele>42.40336</ele>
        <time>2020-08-23T09:16:08.628Z</time>
      </trkpt>
      <trkpt lat="68.67797" lon="15.38963">
        <ele>42.403805</ele>
        <time>2020-08-23T09:16:48.672Z</time>
      </trkpt>
      <trkpt lat="68.67963" lon="15.39351">
        <ele>40.678587</ele>
        <time>2020-08-23T09:17:28.637Z</time>
      </trkpt>
      <trkpt lat="68.68141" lon="15.39678">
        <ele>40.966112</ele>
        <time>2020-08-23T09:18:08.638Z</time>
      </trkpt>
      <trkpt lat="68.68333" lon="15.40008">
        <ele>43.048786</ele>
        <time>2020-08-23T09:18:59.671Z</time>
      </trkpt>
      <trkpt lat="68.68496" lon="15.40339">
        <ele>44.509675</ele>
        <time>2020-08-23T09:19:41.610Z</time>
      </trkpt>
      <trkpt lat="68.68662" lon="15.40675">
        <ele>43.777165</ele>
        <time>2020-08-23T09:20:27.620Z</time>
      </trkpt>
      <trkpt lat="68.68834" lon="15.40991">
        <ele>46.971437</ele>
        <time>2020-08-23T09:21:09.624Z</time>
      </trkpt>
      <trkpt lat="68.69024" lon="15.41133">
        <ele>48.302589</ele>
        <time>2020-08-23T09:21:49.633Z</time>
      </trkpt>
      <trkpt lat="68.69258" lon="15.41201">
        <ele>48.01837</ele>
        <time>2020-08-23T09:22:49.620Z</time>
      </trkpt>
      <trkpt lat="68.69467" lon="15.41268">
        <ele>48.283815</ele>
        <time>2020-08-23T09:23:36.650Z</time>
      </trkpt>
      <trkpt lat="68.69704" lon="15.41299">
        <ele>49.418877</ele>
        <time>2020-08-23T09:24:32.627Z</time>
      </trkpt>
      <trkpt lat="68.69921" lon="15.414">
        <ele>51.97753</ele>
        <time>2020-08-23T09:25:50.679Z</time>
      </trkpt>
      <trkpt lat="68.70192" lon="15.41426">
        <ele>46.162512</ele>
        <time>2020-08-23T09:26:34.651Z</time>
      </trkpt>
      <trkpt lat="68.70392" lon="15.41312">
        <ele>44.498245</ele>
        <time>2020-08-23T09:27:14.636Z</time>
      </trkpt>
      <trkpt lat="68.70598" lon="15.41233">
        <ele>46.586699</ele>
        <time>2020-08-23T09:27:58.644Z</time>
      </trkpt>
      <trkpt lat="68.70634" lon="15.41606">
        <ele>52.960768</ele>
        <time>2020-08-23T09:29:07.635Z</time>
      </trkpt>
      <trkpt lat="68.70644" lon="15.42152">
        <ele>65.951374</ele>
        <time>2020-08-23T09:30:52.631Z</time>
      </trkpt>
      <trkpt lat="68.70655" lon="15.42707">
        <ele>77.573944</ele>
        <time>2020-08-23T09:32:45.630Z</time>
      </trkpt>
      <trkpt lat="68.70669" lon="15.43366">
        <ele>70.648993</ele>
        <time>2020-08-23T09:33:29.630Z</time>
      </trkpt>
      <trkpt lat="68.70679" lon="15.44014">
        <ele>49.743319</ele>
        <time>2020-08-23T09:33:57.626Z</time>
      </trkpt>
      <trkpt lat="68.70855" lon="15.44133">
        <ele>40.890566</ele>
        <time>2020-08-23T09:34:37.636Z</time>
      </trkpt>
      <trkpt lat="68.71097" lon="15.44107">
        <ele>45.783535</ele>
        <time>2020-08-23T09:35:33.641Z</time>
      </trkpt>
      <trkpt lat="68.71306" lon="15.44079">
        <ele>45.969014</ele>
        <time>2020-08-23T09:36:18.642Z</time>
      </trkpt>
      <trkpt lat="68.71502" lon="15.44058">
        <ele>45.863247</ele>
        <time>2020-08-23T09:36:58.633Z</time>
      </trkpt>
      <trkpt lat="68.71686" lon="15.44218">
        <ele>48.324566</ele>
        <time>2020-08-23T09:37:42.622Z</time>
      </trkpt>
      <trkpt lat="68.71754" lon="15.44845">
        <ele>50.327626</ele>
        <time>2020-08-23T09:38:38.653Z</time>
      </trkpt>
      <trkpt lat="68.71827" lon="15.45415">
        <ele>55.564913</ele>
        <time>2020-08-23T09:39:44.664Z</time>
      </trkpt>
      <trkpt lat="68.7196" lon="15.45815">
        <ele>63.953186</ele>
        <time>2020-08-23T09:41:06.626Z</time>
      </trkpt>
      <trkpt lat="68.72044" lon="15.46302">
        <ele>69.788823</ele>
        <time>2020-08-23T09:42:44.622Z</time>
      </trkpt>
      <trkpt lat="68.72214" lon="15.46755">
        <ele>60.414042</ele>
        <time>2020-08-23T09:43:14.624Z</time>
      </trkpt>
      <trkpt lat="68.7237" lon="15.47179">
        <ele>50.18535</ele>
        <time>2020-08-23T09:43:34.668Z</time>
      </trkpt>
      <trkpt lat="68.72512" lon="15.47655">
        <ele>45.337619</ele>
        <time>2020-08-23T09:44:03.624Z</time>
      </trkpt>
      <trkpt lat="68.7242" lon="15.48233">
        <ele>44.653284</ele>
        <time>2020-08-23T09:44:48.623Z</time>
      </trkpt>
      <trkpt lat="68.72303" lon="15.4882">
        <ele>48.009639</ele>
        <time>2020-08-23T09:45:38.631Z</time>
      </trkpt>
      <trkpt lat="68.72257" lon="15.49415">
        <ele>50.365048</ele>
        <time>2020-08-23T09:46:28.663Z</time>
      </trkpt>
      <trkpt lat="68.72153" lon="15.49957">
        <ele>47.747951</ele>
        <time>2020-08-23T09:47:08.649Z</time>
      </trkpt>
      <trkpt lat="68.72103" lon="15.50528">
        <ele>52.339172</ele>
        <time>2020-08-23T09:47:56.624Z</time>
      </trkpt>
      <trkpt lat="68.72094" lon="15.51154">
        <ele>52.87552</ele>
        <time>2020-08-23T09:48:49.665Z</time>
      </trkpt>
      <trkpt lat="68.7213" lon="15.5178">
        <ele>49.466503</ele>
        <time>2020-08-23T09:49:29.635Z</time>
      </trkpt>
      <trkpt lat="68.72247" lon="15.52363">
        <ele>46.978504</ele>
        <time>2020-08-23T09:50:09.671Z</time>
      </trkpt>
      <trkpt lat="68.72473" lon="15.52363">
        <ele>49.16008</ele>
        <time>2020-08-23T09:51:16.651Z</time>
      </trkpt>
      <trkpt lat="68.72738" lon="15.52266">
        <ele>44.021309</ele>
        <time>2020-08-23T09:52:07.632Z</time>
      </trkpt>
      <trkpt lat="68.72955" lon="15.52174">
        <ele>38.401951</ele>
        <time>2020-08-23T09:52:50.636Z</time>
      </trkpt>
      <trkpt lat="68.73167" lon="15.52093">
        <ele>41.534809</ele>
        <time>2020-08-23T09:53:38.629Z</time>
      </trkpt>
      <trkpt lat="68.73393" lon="15.52158">
        <ele>46.373176</ele>
        <time>2020-08-23T09:54:18.650Z</time>
      </trkpt>
      <trkpt lat="68.73599" lon="15.52043">
        <ele>43.91367</ele>
        <time>2020-08-23T09:55:01.643Z</time>
      </trkpt>
      <trkpt lat="68.73795" lon="15.51896">
        <ele>52.730786</ele>
        <time>2020-08-23T09:56:06.647Z</time>
      </trkpt>
      <trkpt lat="68.74009" lon="15.51854">
        <ele>58.226535</ele>
        <time>2020-08-23T09:57:28.633Z</time>
      </trkpt>
      <trkpt lat="68.74218" lon="15.51637">
        <ele>53.716329</ele>
        <time>2020-08-23T09:58:41.626Z</time>
      </trkpt>
      <trkpt lat="68.74342" lon="15.5108">
        <ele>57.731375</ele>
        <time>2020-08-23T09:59:37.645Z</time>
      </trkpt>
      <trkpt lat="68.74502" lon="15.50645">
        <ele>60.792829</ele>
        <time>2020-08-23T10:00:38.663Z</time>
      </trkpt>
      <trkpt lat="68.747" lon="15.50415">
        <ele>50.545002</ele>
        <time>2020-08-23T10:01:00.685Z</time>
      </trkpt>
      <trkpt lat="68.7487" lon="15.49964">
        <ele>51.402608</ele>
        <time>2020-08-23T10:01:51.625Z</time>
      </trkpt>
      <trkpt lat="68.74989" lon="15.49443">
        <ele>56.898581</ele>
        <time>2020-08-23T10:02:51.630Z</time>
      </trkpt>
      <trkpt lat="68.75077" lon="15.48957">
        <ele>54.931535</ele>
        <time>2020-08-23T10:03:31.648Z</time>
      </trkpt>
      <trkpt lat="68.75128" lon="15.4837">
        <ele>52.00099</ele>
        <time>2020-08-23T10:04:13.647Z</time>
      </trkpt>
      <trkpt lat="68.75179" lon="15.47814">
        <ele>48.199784</ele>
        <time>2020-08-23T10:04:58.664Z</time>
      </trkpt>
      <trkpt lat="68.75292" lon="15.47181">
        <ele>46.666118</ele>
        <time>2020-08-23T10:05:34.629Z</time>
      </trkpt>
      <trkpt lat="68.75454" lon="15.46671">
        <ele>48.380156</ele>
        <time>2020-08-23T10:06:25.640Z</time>
      </trkpt>
      <trkpt lat="68.75654" lon="15.46755">
        <ele>53.83183</ele>
        <time>2020-08-23T10:07:36.678Z</time>
      </trkpt>
      <trkpt lat="68.75877" lon="15.4675">
        <ele>52.860627</ele>
        <time>2020-08-23T10:28:48.636Z</time>
      </trkpt>
      <trkpt lat="68.76084" lon="15.46551">
        <ele>51.808259</ele>
        <time>2020-08-23T10:29:51.651Z</time>
      </trkpt>
      <trkpt lat="68.76299" lon="15.46425">
        <ele>46.93202</ele>
        <time>2020-08-23T10:30:23.689Z</time>
      </trkpt>
      <trkpt lat="68.76548" lon="15.46275">
        <ele>43.293734</ele>
        <time>2020-08-23T10:31:01.645Z</time>
      </trkpt>
      <trkpt lat="68.76715" lon="15.46639">
        <ele>48.197583</ele>
        <time>2020-08-23T10:31:41.629Z</time>
      </trkpt>
      <trkpt lat="68.76925" lon="15.46808">
        <ele>51.204522</ele>
        <time>2020-08-23T10:32:41.644Z</time>
      </trkpt>
      <trkpt lat="68.7711" lon="15.47197">
        <ele>50.936189</ele>
        <time>2020-08-23T10:33:21.631Z</time>
      </trkpt>
      <trkpt lat="68.77268" lon="15.4769">
        <ele>49.971032</ele>
        <time>2020-08-23T10:34:02.643Z</time>
      </trkpt>
      <trkpt lat="68.77424" lon="15.48045">
        <ele>50.520686</ele>
        <time>2020-08-23T10:34:54.630Z</time>
      </trkpt>
      <trkpt lat="68.77638" lon="15.4833">
        <ele>46.900203</ele>
        <time>2020-08-23T10:35:38.669Z</time>
      </trkpt>
      <trkpt lat="68.77897" lon="15.48518">
        <ele>41.080147</ele>
        <time>2020-08-23T10:36:20.657Z</time>
      </trkpt>
      <trkpt lat="68.78108" lon="15.48753">
        <ele>44.295024</ele>
        <time>2020-08-23T10:37:09.678Z</time>
      </trkpt>
      <trkpt lat="68.78331" lon="15.48867">
        <ele>47.715388</ele>
        <time>2020-08-23T10:38:09.646Z</time>
      </trkpt>
      <trkpt lat="68.7853" lon="15.48965">
        <ele>51.401112</ele>
        <time>2020-08-23T10:38:58.667Z</time>
      </trkpt>
      <trkpt lat="68.78719" lon="15.49157">
        <ele>60.470212</ele>
        <time>2020-08-23T10:40:08.636Z</time>
      </trkpt>
      <trkpt lat="68.78849" lon="15.49592">
        <ele>65.792028</ele>
        <time>2020-08-23T10:41:22.639Z</time>
      </trkpt>
      <trkpt lat="68.7898" lon="15.50009">
        <ele>65.00242</ele>
        <time>2020-08-23T10:42:23.643Z</time>
      </trkpt>
      <trkpt lat="68.79128" lon="15.50437">
        <ele>69.67721</ele>
        <time>2020-08-23T10:43:38.672Z</time>
      </trkpt>
      <trkpt lat="68.79281" lon="15.50883">
        <ele>68.657383</ele>
        <time>2020-08-23T10:45:03.656Z</time>
      </trkpt>
      <trkpt lat="68.79427" lon="15.51303">
        <ele>64.88874</ele>
        <time>2020-08-23T10:45:43.659Z</time>
      </trkpt>
      <trkpt lat="68.79556" lon="15.51952">
        <ele>63.294777</ele>
        <time>2020-08-23T10:46:23.647Z</time>
      </trkpt>
      <trkpt lat="68.79667" lon="15.52701">
        <ele>58.533142</ele>
        <time>2020-08-23T10:47:03.631Z</time>
      </trkpt>
      <trkpt lat="68.79806" lon="15.53283">
        <ele>54.230782</ele>
        <time>2020-08-23T10:47:43.630Z</time>
      </trkpt>
      <trkpt lat="68.80017" lon="15.53604">
        <ele>47.9968</ele>
        <time>2020-08-23T10:48:19.652Z</time>
      </trkpt>
      <trkpt lat="68.8019" lon="15.54074">
        <ele>41.689057</ele>
        <time>2020-08-23T10:48:44.658Z</time>
      </trkpt>
      <trkpt lat="68.80339" lon="15.54494">
        <ele>41.466364</ele>
        <time>2020-08-23T10:49:26.639Z</time>
      </trkpt>
      <trkpt lat="68.80543" lon="15.54539">
        <ele>43.3835</ele>
        <time>2020-08-23T10:50:10.641Z</time>
      </trkpt>
      <trkpt lat="68.8075" lon="15.54526">
        <ele>45.866013</ele>
        <time>2020-08-23T10:51:13.661Z</time>
      </trkpt>
      <trkpt lat="68.80959" lon="15.54452">
        <ele>45.707779</ele>
        <time>2020-08-23T10:52:03.666Z</time>
      </trkpt>
      <trkpt lat="68.81172" lon="15.54378">
        <ele>48.363141</ele>
        <time>2020-08-23T10:52:51.674Z</time>
      </trkpt>
      <trkpt lat="68.81375" lon="15.54493">
        <ele>51.645768</ele>
        <time>2020-08-23T10:53:51.648Z</time>
      </trkpt>
      <trkpt lat="68.81518" lon="15.55003">
        <ele>54.102553</ele>
        <time>2020-08-23T10:54:45.640Z</time>
      </trkpt>
      <trkpt lat="68.8166" lon="15.55506">
        <ele>52.433786</ele>
        <time>2020-08-23T10:55:27.638Z</time>
      </trkpt>
      <trkpt lat="68.81795" lon="15.55984">
        <ele>53.785677</ele>
        <time>2020-08-23T10:56:07.657Z</time>
      </trkpt>
      <trkpt lat="68.81929" lon="15.56461">
        <ele>55.990707</ele>
        <time>2020-08-23T10:56:53.684Z</time>
      </trkpt>
      <trkpt lat="68.81962" lon="15.57038">
        <ele>55.692963</ele>
        <time>2020-08-23T10:57:43.644Z</time>
      </trkpt>
      <trkpt lat="68.81927" lon="15.57565">
        <ele>55.112455</ele>
        <time>2020-08-23T10:58:24.665Z</time>
      </trkpt>
      <trkpt lat="68.8187" lon="15.58197">
        <ele>53.771404</ele>
        <time>2020-08-23T10:59:10.668Z</time>
      </trkpt>
      <trkpt lat="68.81815" lon="15.58804">
        <ele>53.597802</ele>
        <time>2020-08-23T10:59:50.646Z</time>
      </trkpt>
      <trkpt lat="68.81763" lon="15.59352">
        <ele>53.26347</ele>
        <time>2020-08-23T11:00:30.645Z</time>
      </trkpt>
      <trkpt lat="68.81708" lon="15.5996">
        <ele>54.595158</ele>
        <time>2020-08-23T11:01:12.683Z</time>
      </trkpt>
      <trkpt lat="68.81651" lon="15.60563">
        <ele>45.510266</ele>
        <time>2020-08-23T11:01:42.704Z</time>
      </trkpt>
      <trkpt lat="68.81635" lon="15.61218">
        <ele>44.8401</ele>
        <time>2020-08-23T11:02:16.636Z</time>
      </trkpt>
      <trkpt lat="68.81663" lon="15.61875">
        <ele>46.962001</ele>
        <time>2020-08-23T11:03:07.661Z</time>
      </trkpt>
      <trkpt lat="68.81653" lon="15.62525">
        <ele>44.273744</ele>
        <time>2020-08-23T11:03:50.649Z</time>
      </trkpt>
      <trkpt lat="68.81588" lon="15.63155">
        <ele>40.829112</ele>
        <time>2020-08-23T11:04:30.650Z</time>
      </trkpt>
      <trkpt lat="68.81468" lon="15.63632">
        <ele>43.320848</ele>
        <time>2020-08-23T11:05:23.666Z</time>
      </trkpt>
      <trkpt lat="68.81414" lon="15.64242">
        <ele>44.378367</ele>
        <time>2020-08-23T11:06:16.633Z</time>
      </trkpt>
      <trkpt lat="68.81354" lon="15.64839">
        <ele>42.776554</ele>
        <time>2020-08-23T11:06:56.658Z</time>
      </trkpt>
      <trkpt lat="68.8132" lon="15.65405">
        <ele>44.155844</ele>
        <time>2020-08-23T11:07:41.659Z</time>
      </trkpt>
      <trkpt lat="68.81235" lon="15.65997">
        <ele>42.576415</ele>
        <time>2020-08-23T11:08:32.628Z</time>
      </trkpt>
      <trkpt lat="68.81242" lon="15.66607">
        <ele>44.813296</ele>
        <time>2020-08-23T11:09:26.656Z</time>
      </trkpt>
      <trkpt lat="68.81345" lon="15.67092">
        <ele>43.486603</ele>
        <time>2020-08-23T11:10:07.704Z</time>
      </trkpt>
      <trkpt lat="68.81452" lon="15.67591">
        <ele>40.833737</ele>
        <time>2020-08-23T11:10:50.634Z</time>
      </trkpt>
      <trkpt lat="68.8159" lon="15.68125">
        <ele>41.43868</ele>
        <time>2020-08-23T11:11:43.670Z</time>
      </trkpt>
      <trkpt lat="68.81772" lon="15.68417">
        <ele>44.273253</ele>
        <time>2020-08-23T11:12:27.661Z</time>
      </trkpt>
      <trkpt lat="68.81972" lon="15.68566">
        <ele>53.388619</ele>
        <time>2020-08-23T11:13:49.648Z</time>
      </trkpt>
      <trkpt lat="68.82176" lon="15.68465">
        <ele>60.0353</ele>
        <time>2020-08-23T11:15:07.653Z</time>
      </trkpt>
      <trkpt lat="68.82393" lon="15.68361">
        <ele>64.371956</ele>
        <time>2020-08-23T11:16:25.681Z</time>
      </trkpt>
      <trkpt lat="68.8258" lon="15.68261">
        <ele>63.823406</ele>
        <time>2020-08-23T11:17:06.651Z</time>
      </trkpt>
      <trkpt lat="68.82757" lon="15.67832">
        <ele>58.428081</ele>
        <time>2020-08-23T11:17:39.667Z</time>
      </trkpt>
      <trkpt lat="68.8293" lon="15.673">
        <ele>53.561781</ele>
        <time>2020-08-23T11:18:19.654Z</time>
      </trkpt>
      <trkpt lat="68.83105" lon="15.6677">
        <ele>52.261049</ele>
        <time>2020-08-23T11:19:01.638Z</time>
      </trkpt>
      <trkpt lat="68.83211" lon="15.66209">
        <ele>49.212046</ele>
        <time>2020-08-23T11:19:41.636Z</time>
      </trkpt>
      <trkpt lat="68.83257" lon="15.65541">
        <ele>45.627799</ele>
        <time>2020-08-23T11:20:21.633Z</time>
      </trkpt>
      <trkpt lat="68.83299" lon="15.64975">
        <ele>48.360633</ele>
        <time>2020-08-23T11:21:02.673Z</time>
      </trkpt>
      <trkpt lat="68.83354" lon="15.64434">
        <ele>49.460045</ele>
        <time>2020-08-23T11:21:42.673Z</time>
      </trkpt>
      <trkpt lat="68.83399" lon="15.6378">
        <ele>51.368904</ele>
        <time>2020-08-23T11:22:27.640Z</time>
      </trkpt>
      <trkpt lat="68.83456" lon="15.632">
        <ele>54.154633</ele>
        <time>2020-08-23T11:23:17.659Z</time>
      </trkpt>
      <trkpt lat="68.83547" lon="15.62553">
        <ele>52.466715</ele>
        <time>2020-08-23T11:23:59.651Z</time>
      </trkpt>
      <trkpt lat="68.83637" lon="15.61934">
        <ele>52.761403</ele>
        <time>2020-08-23T11:24:40.641Z</time>
      </trkpt>
      <trkpt lat="68.83712" lon="15.61386">
        <ele>55.749816</ele>
        <time>2020-08-23T11:25:32.648Z</time>
      </trkpt>
      <trkpt lat="68.838" lon="15.60813">
        <ele>54.912149</ele>
        <time>2020-08-23T11:26:15.648Z</time>
      </trkpt>
      <trkpt lat="68.8391" lon="15.60356">
        <ele>52.436453</ele>
        <time>2020-08-23T11:26:57.667Z</time>
      </trkpt>
      <trkpt lat="68.84056" lon="15.59955">
        <ele>52.471244</ele>
        <time>2020-08-23T11:27:37.651Z</time>
      </trkpt>
      <trkpt lat="68.84212" lon="15.59524">
        <ele>52.78278</ele>
        <time>2020-08-23T11:28:18.642Z</time>
      </trkpt>
      <trkpt lat="68.84354" lon="15.59099">
        <ele>50.907896</ele>
        <time>2020-08-23T11:29:00.643Z</time>
      </trkpt>
      <trkpt lat="68.84552" lon="15.58649">
        <ele>48.762082</ele>
        <time>2020-08-23T11:29:40.641Z</time>
      </trkpt>
      <trkpt lat="68.84733" lon="15.58239">
        <ele>50.102907</ele>
        <time>2020-08-23T11:30:20.647Z</time>
      </trkpt>
      <trkpt lat="68.84893" lon="15.5787">
        <ele>51.125012</ele>
        <time>2020-08-23T11:31:01.713Z</time>
      </trkpt>
      <trkpt lat="68.85067" lon="15.57472">
        <ele>52.314316</ele>
        <time>2020-08-23T11:32:02.652Z</time>
      </trkpt>
      <trkpt lat="68.8524" lon="15.57075">
        <ele>55.566368</ele>
        <time>2020-08-23T11:32:56.665Z</time>
      </trkpt>
      <trkpt lat="68.854" lon="15.5671">
        <ele>56.764476</ele>
        <time>2020-08-23T11:33:49.659Z</time>
      </trkpt>
      <trkpt lat="68.85556" lon="15.56347">
        <ele>56.15863</ele>
        <time>2020-08-23T11:34:29.685Z</time>
      </trkpt>
      <trkpt lat="68.85703" lon="15.5604">
        <ele>54.820734</ele>
        <time>2020-08-23T11:47:10.687Z</time>
      </trkpt>
      <trkpt lat="68.85939" lon="15.55881">
        <ele>47.922058</ele>
        <time>2020-08-23T11:47:50.651Z</time>
      </trkpt>
      <trkpt lat="68.86177" lon="15.55642">
        <ele>44.396117</ele>
        <time>2020-08-23T11:48:30.648Z</time>
      </trkpt>
      <trkpt lat="68.86414" lon="15.55631">
        <ele>41.943678</ele>
        <time>2020-08-23T11:49:10.692Z</time>
      </trkpt>
      <trkpt lat="68.86653" lon="15.55796">
        <ele>39.55274</ele>
        <time>2020-08-23T11:49:50.662Z</time>
      </trkpt>
      <trkpt lat="68.86856" lon="15.56008">
        <ele>40.760986</ele>
        <time>2020-08-23T11:50:30.669Z</time>
      </trkpt>
      <trkpt lat="68.87037" lon="15.56173">
        <ele>42.291685</ele>
        <time>2020-08-23T11:51:10.677Z</time>
      </trkpt>
      <trkpt lat="68.87252" lon="15.56383">
        <ele>42.930458</ele>
        <time>2020-08-23T11:52:01.662Z</time>
      </trkpt>
      <trkpt lat="68.87467" lon="15.56594">
        <ele>43.272354</ele>
        <time>2020-08-23T11:52:52.664Z</time>
      </trkpt>
      <trkpt lat="68.87662" lon="15.5678">
        <ele>44.660713</ele>
        <time>2020-08-23T11:53:39.660Z</time>
      </trkpt>
      <trkpt lat="68.87862" lon="15.56893">
        <ele>47.314503</ele>
        <time>2020-08-23T11:54:40.659Z</time>
      </trkpt>
      <trkpt lat="68.88107" lon="15.57008">
        <ele>41.793901</ele>
        <time>2020-08-23T11:55:20.657Z</time>
      </trkpt>
      <trkpt lat="68.88329" lon="15.57112">
        <ele>41.749656</ele>
        <time>2020-08-23T11:56:00.668Z</time>
      </trkpt>
      <trkpt lat="68.88525" lon="15.572">
        <ele>42.340791</ele>
        <time>2020-08-23T11:56:40.657Z</time>
      </trkpt>
      <trkpt lat="68.88734" lon="15.57385">
        <ele>41.582238</ele>
        <time>2020-08-23T11:57:23.658Z</time>
      </trkpt>
      <trkpt lat="68.88897" lon="15.57826">
        <ele>45.226453</ele>
        <time>2020-08-23T11:58:19.688Z</time>
      </trkpt>
      <trkpt lat="68.88868" lon="15.58398">
        <ele>46.232276</ele>
        <time>2020-08-23T11:59:08.664Z</time>
      </trkpt>
      <trkpt lat="68.88705" lon="15.58864">
        <ele>43.538508</ele>
        <time>2020-08-23T11:59:48.653Z</time>
      </trkpt>
      <trkpt lat="68.8854" lon="15.59195">
        <ele>41.395946</ele>
        <time>2020-08-23T12:00:28.660Z</time>
      </trkpt>
      <trkpt lat="68.88375" lon="15.59547">
        <ele>42.962851</ele>
        <time>2020-08-23T12:01:17.675Z</time>
      </trkpt>
      <trkpt lat="68.88405" lon="15.60166">
        <ele>45.514238</ele>
        <time>2020-08-23T12:02:00.690Z</time>
      </trkpt>
      <trkpt lat="68.88474" lon="15.60772">
        <ele>43.747134</ele>
        <time>2020-08-23T12:02:40.650Z</time>
      </trkpt>
      <trkpt lat="68.88536" lon="15.61377">
        <ele>44.544949</ele>
        <time>2020-08-23T12:03:28.669Z</time>
      </trkpt>
      <trkpt lat="68.88563" lon="15.62043">
        <ele>43.336135</ele>
        <time>2020-08-23T12:04:12.663Z</time>
      </trkpt>
      <trkpt lat="68.88733" lon="15.62408">
        <ele>39.603175</ele>
        <time>2020-08-23T12:04:52.676Z</time>
      </trkpt>
      <trkpt lat="68.8894" lon="15.62442">
        <ele>48.263013</ele>
        <time>2020-08-23T12:06:05.655Z</time>
      </trkpt>
      <trkpt lat="68.89133" lon="15.62268">
        <ele>54.373494</ele>
        <time>2020-08-23T12:07:39.653Z</time>
      </trkpt>
      <trkpt lat="68.89284" lon="15.61875">
        <ele>57.831271</ele>
        <time>2020-08-23T12:08:41.663Z</time>
      </trkpt>
      <trkpt lat="68.89456" lon="15.61461">
        <ele>56.517301</ele>
        <time>2020-08-23T12:09:33.658Z</time>
      </trkpt>
      <trkpt lat="68.89741" lon="15.61285">
        <ele>47.969223</ele>
        <time>2020-08-23T12:10:15.679Z</time>
      </trkpt>
      <trkpt lat="68.89999" lon="15.61305">
        <ele>43.288292</ele>
        <time>2020-08-23T12:10:55.660Z</time>
      </trkpt>
      <trkpt lat="68.90234" lon="15.61323">
        <ele>40.953445</ele>
        <time>2020-08-23T12:11:35.666Z</time>
      </trkpt>
      <trkpt lat="68.90449" lon="15.61323">
        <ele>39.222021</ele>
        <time>2020-08-23T12:12:15.649Z</time>
      </trkpt>
      <trkpt lat="68.90654" lon="15.61332">
        <ele>39.972774</ele>
        <time>2020-08-23T12:12:59.668Z</time>
      </trkpt>
      <trkpt lat="68.9088" lon="15.61366">
        <ele>41.685884</ele>
        <time>2020-08-23T12:13:50.662Z</time>
      </trkpt>
      <trkpt lat="68.91103" lon="15.61368">
        <ele>42.221031</ele>
        <time>2020-08-23T12:14:42.651Z</time>
      </trkpt>
      <trkpt lat="68.91306" lon="15.61362">
        <ele>42.374688</ele>
        <time>2020-08-23T12:15:25.676Z</time>
      </trkpt>
      <trkpt lat="68.9152" lon="15.6143">
        <ele>41.225659</ele>
        <time>2020-08-23T12:16:11.683Z</time>
      </trkpt>
      <trkpt lat="68.91732" lon="15.61569">
        <ele>40.406512</ele>
        <time>2020-08-23T12:16:57.659Z</time>
      </trkpt>
      <trkpt lat="68.91947" lon="15.61705">
        <ele>41.293143</ele>
        <time>2020-08-23T12:17:55.671Z</time>
      </trkpt>
      <trkpt lat="68.92157" lon="15.61831">
        <ele>44.604354</ele>
        <time>2020-08-23T12:18:46.695Z</time>
      </trkpt>
      <trkpt lat="68.9236" lon="15.61999">
        <ele>41.612424</ele>
        <time>2020-08-23T12:19:27.694Z</time>
      </trkpt>
      <trkpt lat="68.9256" lon="15.6231">
        <ele>41.039637</ele>
        <time>2020-08-23T12:20:07.665Z</time>
      </trkpt>
      <trkpt lat="68.92748" lon="15.62632">
        <ele>42.528111</ele>
        <time>2020-08-23T12:20:59.658Z</time>
      </trkpt>
      <trkpt lat="68.92952" lon="15.6283">
        <ele>41.592693</ele>
        <time>2020-08-23T12:21:41.690Z</time>
      </trkpt>
      <trkpt lat="68.93161" lon="15.63029">
        <ele>39.894461</ele>
        <time>2020-08-23T12:22:21.658Z</time>
      </trkpt>
      <trkpt lat="68.93371" lon="15.63225">
        <ele>40.533528</ele>
        <time>2020-08-23T12:23:01.682Z</time>
      </trkpt>
      <trkpt lat="68.93574" lon="15.63415">
        <ele>42.195033</ele>
        <time>2020-08-23T12:24:03.670Z</time>
      </trkpt>
      <trkpt lat="68.93827" lon="15.63656">
        <ele>35.988765</ele>
        <time>2020-08-23T12:24:44.668Z</time>
      </trkpt>
      <trkpt lat="68.94011" lon="15.63892">
        <ele>38.633042</ele>
        <time>2020-08-23T12:25:26.716Z</time>
      </trkpt>
      <trkpt lat="68.94224" lon="15.64133">
        <ele>40.203536</ele>
        <time>2020-08-23T12:26:07.702Z</time>
      </trkpt>
      <trkpt lat="68.94438" lon="15.64309">
        <ele>41.639046</ele>
        <time>2020-08-23T12:27:03.659Z</time>
      </trkpt>
      <trkpt lat="68.9466" lon="15.6452">
        <ele>43.579635</ele>
        <time>2020-08-23T12:28:01.668Z</time>
      </trkpt>
      <trkpt lat="68.94855" lon="15.64757">
        <ele>43.897979</ele>
        <time>2020-08-23T12:28:41.676Z</time>
      </trkpt>
      <trkpt lat="68.94956" lon="15.65297">
        <ele>47.773133</ele>
        <time>2020-08-23T12:29:33.667Z</time>
      </trkpt>
      <trkpt lat="68.95053" lon="15.65838">
        <ele>47.992268</ele>
        <time>2020-08-23T12:30:33.663Z</time>
      </trkpt>
      <trkpt lat="68.95188" lon="15.66287">
        <ele>44.690345</ele>
        <time>2020-08-23T12:31:14.668Z</time>
      </trkpt>
      <trkpt lat="68.95438" lon="15.66441">
        <ele>40.121593</ele>
        <time>2020-08-23T12:31:54.658Z</time>
      </trkpt>
      <trkpt lat="68.95641" lon="15.66265">
        <ele>40.604988</ele>
        <time>2020-08-23T12:32:34.652Z</time>
      </trkpt>
      <trkpt lat="68.95822" lon="15.65956">
        <ele>40.132831</ele>
        <time>2020-08-23T12:33:16.677Z</time>
      </trkpt>
      <trkpt lat="68.95964" lon="15.65546">
        <ele>38.414448</ele>
        <time>2020-08-23T12:33:56.687Z</time>
      </trkpt>
      <trkpt lat="68.96095" lon="15.65095">
        <ele>38.062379</ele>
        <time>2020-08-23T12:34:36.700Z</time>
      </trkpt>
      <trkpt lat="68.96224" lon="15.64654">
        <ele>41.879838</ele>
        <time>2020-08-23T12:35:16.652Z</time>
      </trkpt>
      <trkpt lat="68.96351" lon="15.64213">
        <ele>55.638133</ele>
        <time>2020-08-23T12:36:50.667Z</time>
      </trkpt>
      <trkpt lat="68.96474" lon="15.63796">
        <ele>67.066383</ele>
        <time>2020-08-23T12:38:30.664Z</time>
      </trkpt>
      <trkpt lat="68.96611" lon="15.63331">
        <ele>67.473608</ele>
        <time>2020-08-23T12:39:39.697Z</time>
      </trkpt>
      <trkpt lat="68.96778" lon="15.62849">
        <ele>54.986039</ele>
        <time>2020-08-23T12:40:06.655Z</time>
      </trkpt>
      <trkpt lat="68.96733" lon="15.63183">
        <ele>52.134839</ele>
        <time>2020-08-23T12:40:57.684Z</time>
      </trkpt>
      <trkpt lat="68.96708" lon="15.63768">
        <ele>43.567883</ele>
        <time>2020-08-23T12:41:28.697Z</time>
      </trkpt>
      <trkpt lat="68.96885" lon="15.64176">
        <ele>39.501799</ele>
        <time>2020-08-23T12:42:03.661Z</time>
      </trkpt>
    </trkseg>
  </trk>
</gpx>